sensor_id;sensor_type;location;lat;lon;timestamp;temperature;humidity
64226;DHT22;50545;56.064;26.178;2023-02-01T00:00:00;-0.40;99.90
64226;DHT22;50545;56.064;26.178;2023-02-01T00:02:27;-0.40;99.90
64226;DHT22;50545;56.064;26.178;2023-02-01T00:04:55;-0.40;99.90
64226;DHT22;50545;56.064;26.178;2023-02-01T00:07:22;-0.30;99.90
64226;DHT22;50545;56.064;26.178;2023-02-01T00:09:49;-0.30;99.90
64226;DHT22;50545;56.064;26.178;2023-02-01T00:12:16;-0.30;99.90
64226;DHT22;50545;56.064;26.178;2023-02-01T00:14:44;-0.30;99.90
64226;DHT22;50545;56.064;26.178;2023-02-01T00:17:11;-0.30;99.90
64226;DHT22;50545;56.064;26.178;2023-02-01T00:19:38;-0.30;99.90
64226;DHT22;50545;56.064;26.178;2023-02-01T00:22:05;-0.30;99.90
64226;DHT22;50545;56.064;26.178;2023-02-01T00:24:32;-0.20;99.90
64226;DHT22;50545;56.064;26.178;2023-02-01T00:27:00;-0.20;99.90
64226;DHT22;50545;56.064;26.178;2023-02-01T00:29:27;-0.20;99.90
64226;DHT22;50545;56.064;26.178;2023-02-01T00:31:54;-0.20;99.90
64226;DHT22;50545;56.064;26.178;2023-02-01T00:34:21;-0.10;99.90
64226;DHT22;50545;56.064;26.178;2023-02-01T00:36:49;-0.10;99.90
64226;DHT22;50545;56.064;26.178;2023-02-01T00:39:16;0.00;99.90
64226;DHT22;50545;56.064;26.178;2023-02-01T00:41:44;0.00;99.90
64226;DHT22;50545;56.064;26.178;2023-02-01T00:44:11;0.00;99.90
64226;DHT22;50545;56.064;26.178;2023-02-01T00:46:38;0.00;99.90
64226;DHT22;50545;56.064;26.178;2023-02-01T00:49:05;0.00;99.90
64226;DHT22;50545;56.064;26.178;2023-02-01T00:51:34;0.00;99.90
64226;DHT22;50545;56.064;26.178;2023-02-01T00:54:02;0.00;99.90
64226;DHT22;50545;56.064;26.178;2023-02-01T00:56:30;0.10;99.90
64226;DHT22;50545;56.064;26.178;2023-02-01T00:58:57;0.10;99.90
64226;DHT22;50545;56.064;26.178;2023-02-01T01:01:27;0.10;99.90
64226;DHT22;50545;56.064;26.178;2023-02-01T01:03:57;0.10;99.90
64226;DHT22;50545;56.064;26.178;2023-02-01T01:06:29;0.10;99.90
64226;DHT22;50545;56.064;26.178;2023-02-01T01:08:59;0.10;99.90
64226;DHT22;50545;56.064;26.178;2023-02-01T01:11:29;0.10;99.90
64226;DHT22;50545;56.064;26.178;2023-02-01T01:13:58;0.10;99.90
64226;DHT22;50545;56.064;26.178;2023-02-01T01:16:27;0.10;99.90
64226;DHT22;50545;56.064;26.178;2023-02-01T01:18:55;0.10;99.90
64226;DHT22;50545;56.064;26.178;2023-02-01T01:21:22;0.10;99.90
64226;DHT22;50545;56.064;26.178;2023-02-01T01:23:50;0.00;99.90
64226;DHT22;50545;56.064;26.178;2023-02-01T01:26:22;0.00;99.90
64226;DHT22;50545;56.064;26.178;2023-02-01T01:28:51;0.00;99.90
64226;DHT22;50545;56.064;26.178;2023-02-01T01:31:19;0.00;99.90
64226;DHT22;50545;56.064;26.178;2023-02-01T01:33:55;0.00;99.90
64226;DHT22;50545;56.064;26.178;2023-02-01T01:36:23;0.00;99.90
64226;DHT22;50545;56.064;26.178;2023-02-01T01:38:51;0.00;99.90
64226;DHT22;50545;56.064;26.178;2023-02-01T01:41:20;0.00;99.90
64226;DHT22;50545;56.064;26.178;2023-02-01T01:46:27;0.00;99.90
64226;DHT22;50545;56.064;26.178;2023-02-01T01:49:11;-0.10;99.90
64226;DHT22;50545;56.064;26.178;2023-02-01T01:51:49;0.00;99.90
64226;DHT22;50545;56.064;26.178;2023-02-01T01:54:26;0.00;99.90
64226;DHT22;50545;56.064;26.178;2023-02-01T01:57:01;-0.10;99.90
64226;DHT22;50545;56.064;26.178;2023-02-01T01:59:32;0.00;99.90
64226;DHT22;50545;56.064;26.178;2023-02-01T02:02:02;-0.10;99.90
64226;DHT22;50545;56.064;26.178;2023-02-01T02:04:31;-0.10;99.90
64226;DHT22;50545;56.064;26.178;2023-02-01T02:07:16;-0.10;99.90
64226;DHT22;50545;56.064;26.178;2023-02-01T02:09:44;-0.10;99.90
64226;DHT22;50545;56.064;26.178;2023-02-01T02:12:27;-0.10;99.90
64226;DHT22;50545;56.064;26.178;2023-02-01T02:14:54;-0.10;99.90
64226;DHT22;50545;56.064;26.178;2023-02-01T02:35:21;-0.10;99.90
64226;DHT22;50545;56.064;26.178;2023-02-01T02:37:41;-0.10;99.90
64226;DHT22;50545;56.064;26.178;2023-02-01T02:46:23;-0.10;99.90
64226;DHT22;50545;56.064;26.178;2023-02-01T02:52:04;-0.10;99.90
64226;DHT22;50545;56.064;26.178;2023-02-01T02:54:51;-0.10;99.90
64226;DHT22;50545;56.064;26.178;2023-02-01T02:57:30;-0.20;99.90
64226;DHT22;50545;56.064;26.178;2023-02-01T03:00:23;-0.20;99.90
64226;DHT22;50545;56.064;26.178;2023-02-01T03:03:10;-0.20;99.90
64226;DHT22;50545;56.064;26.178;2023-02-01T03:05:56;-0.20;99.90
64226;DHT22;50545;56.064;26.178;2023-02-01T03:08:27;-0.20;99.90
64226;DHT22;50545;56.064;26.178;2023-02-01T03:11:05;-0.20;99.90
64226;DHT22;50545;56.064;26.178;2023-02-01T03:14:00;-0.20;99.90
64226;DHT22;50545;56.064;26.178;2023-02-01T03:17:00;-0.20;99.90
64226;DHT22;50545;56.064;26.178;2023-02-01T03:19:35;-0.20;99.90
64226;DHT22;50545;56.064;26.178;2023-02-01T03:22:08;-0.20;99.90
64226;DHT22;50545;56.064;26.178;2023-02-01T03:24:43;-0.20;99.90
64226;DHT22;50545;56.064;26.178;2023-02-01T03:27:17;-0.20;99.90
64226;DHT22;50545;56.064;26.178;2023-02-01T03:29:59;-0.20;99.90
64226;DHT22;50545;56.064;26.178;2023-02-01T03:32:29;-0.20;99.90
64226;DHT22;50545;56.064;26.178;2023-02-01T03:35:17;-0.20;99.90
64226;DHT22;50545;56.064;26.178;2023-02-01T03:37:45;-0.20;99.90
64226;DHT22;50545;56.064;26.178;2023-02-01T03:40:13;-0.30;99.90
64226;DHT22;50545;56.064;26.178;2023-02-01T03:42:48;-0.30;99.90
64226;DHT22;50545;56.064;26.178;2023-02-01T03:45:24;-0.30;99.90
64226;DHT22;50545;56.064;26.178;2023-02-01T03:47:56;-0.30;99.90
64226;DHT22;50545;56.064;26.178;2023-02-01T03:50:24;-0.30;99.90
64226;DHT22;50545;56.064;26.178;2023-02-01T03:53:06;-0.30;99.90
64226;DHT22;50545;56.064;26.178;2023-02-01T03:55:36;-0.20;99.90
64226;DHT22;50545;56.064;26.178;2023-02-01T03:58:13;-0.20;99.90
64226;DHT22;50545;56.064;26.178;2023-02-01T04:00:43;-0.20;99.90
64226;DHT22;50545;56.064;26.178;2023-02-01T04:03:10;-0.20;99.90
64226;DHT22;50545;56.064;26.178;2023-02-01T04:05:38;-0.20;99.90
64226;DHT22;50545;56.064;26.178;2023-02-01T04:08:05;-0.20;99.90
64226;DHT22;50545;56.064;26.178;2023-02-01T04:10:32;-0.20;99.90
64226;DHT22;50545;56.064;26.178;2023-02-01T04:12:59;-0.20;99.90
64226;DHT22;50545;56.064;26.178;2023-02-01T04:15:27;-0.20;99.90
64226;DHT22;50545;56.064;26.178;2023-02-01T04:17:54;-0.20;99.90
64226;DHT22;50545;56.064;26.178;2023-02-01T04:20:21;-0.20;99.90
64226;DHT22;50545;56.064;26.178;2023-02-01T04:22:49;-0.10;99.90
64226;DHT22;50545;56.064;26.178;2023-02-01T04:25:16;-0.10;99.90
64226;DHT22;50545;56.064;26.178;2023-02-01T04:27:44;-0.10;99.90
64226;DHT22;50545;56.064;26.178;2023-02-01T04:30:12;-0.10;99.90
64226;DHT22;50545;56.064;26.178;2023-02-01T04:32:39;-0.10;99.90
64226;DHT22;50545;56.064;26.178;2023-02-01T04:35:07;-0.10;99.90
64226;DHT22;50545;56.064;26.178;2023-02-01T04:37:35;0.00;99.90
64226;DHT22;50545;56.064;26.178;2023-02-01T04:40:02;0.00;99.90
64226;DHT22;50545;56.064;26.178;2023-02-01T04:42:30;0.00;99.90
64226;DHT22;50545;56.064;26.178;2023-02-01T04:44:57;-0.10;99.90
64226;DHT22;50545;56.064;26.178;2023-02-01T04:47:24;0.00;99.90
64226;DHT22;50545;56.064;26.178;2023-02-01T04:49:53;0.00;99.90
64226;DHT22;50545;56.064;26.178;2023-02-01T04:52:20;0.00;99.90
64226;DHT22;50545;56.064;26.178;2023-02-01T04:54:47;-0.10;99.90
64226;DHT22;50545;56.064;26.178;2023-02-01T04:57:15;0.00;99.90
64226;DHT22;50545;56.064;26.178;2023-02-01T04:59:42;0.00;99.90
64226;DHT22;50545;56.064;26.178;2023-02-01T05:02:09;0.00;99.90
64226;DHT22;50545;56.064;26.178;2023-02-01T05:04:36;0.00;99.90
64226;DHT22;50545;56.064;26.178;2023-02-01T05:07:03;0.00;99.90
64226;DHT22;50545;56.064;26.178;2023-02-01T05:09:31;0.00;99.90
64226;DHT22;50545;56.064;26.178;2023-02-01T05:11:58;0.00;99.90
64226;DHT22;50545;56.064;26.178;2023-02-01T05:14:44;-0.10;99.90
64226;DHT22;50545;56.064;26.178;2023-02-01T05:17:11;0.00;99.90
64226;DHT22;50545;56.064;26.178;2023-02-01T05:19:38;-0.10;99.90
64226;DHT22;50545;56.064;26.178;2023-02-01T05:22:05;0.00;99.90
64226;DHT22;50545;56.064;26.178;2023-02-01T05:24:32;0.00;99.90
64226;DHT22;50545;56.064;26.178;2023-02-01T05:27:00;0.00;99.90
64226;DHT22;50545;56.064;26.178;2023-02-01T05:29:27;0.00;99.90
64226;DHT22;50545;56.064;26.178;2023-02-01T05:31:54;0.00;99.90
64226;DHT22;50545;56.064;26.178;2023-02-01T05:34:22;0.00;99.90
64226;DHT22;50545;56.064;26.178;2023-02-01T05:36:50;-0.10;99.90
64226;DHT22;50545;56.064;26.178;2023-02-01T05:39:17;0.00;99.90
64226;DHT22;50545;56.064;26.178;2023-02-01T05:41:44;0.00;99.90
64226;DHT22;50545;56.064;26.178;2023-02-01T05:44:11;0.00;99.90
64226;DHT22;50545;56.064;26.178;2023-02-01T05:46:39;0.00;99.90
64226;DHT22;50545;56.064;26.178;2023-02-01T05:49:06;0.00;99.90
64226;DHT22;50545;56.064;26.178;2023-02-01T05:51:33;0.00;99.90
64226;DHT22;50545;56.064;26.178;2023-02-01T05:54:00;0.00;99.90
64226;DHT22;50545;56.064;26.178;2023-02-01T05:56:28;0.00;99.90
64226;DHT22;50545;56.064;26.178;2023-02-01T05:58:55;-0.10;99.90
64226;DHT22;50545;56.064;26.178;2023-02-01T06:01:22;0.00;99.90
64226;DHT22;50545;56.064;26.178;2023-02-01T06:03:49;0.00;99.90
64226;DHT22;50545;56.064;26.178;2023-02-01T06:06:17;0.00;99.90
64226;DHT22;50545;56.064;26.178;2023-02-01T06:08:46;0.00;99.90
64226;DHT22;50545;56.064;26.178;2023-02-01T06:11:13;-0.10;99.90
64226;DHT22;50545;56.064;26.178;2023-02-01T06:13:58;-0.10;99.90
64226;DHT22;50545;56.064;26.178;2023-02-01T06:16:27;0.00;99.90
64226;DHT22;50545;56.064;26.178;2023-02-01T06:18:54;-0.10;99.90
64226;DHT22;50545;56.064;26.178;2023-02-01T06:21:21;0.00;99.90
64226;DHT22;50545;56.064;26.178;2023-02-01T06:23:53;0.00;99.90
64226;DHT22;50545;56.064;26.178;2023-02-01T06:26:21;0.00;99.90
64226;DHT22;50545;56.064;26.178;2023-02-01T06:28:49;0.00;99.90
64226;DHT22;50545;56.064;26.178;2023-02-01T06:31:16;0.00;99.90
64226;DHT22;50545;56.064;26.178;2023-02-01T06:33:44;0.00;99.90
64226;DHT22;50545;56.064;26.178;2023-02-01T06:36:14;0.00;99.90
64226;DHT22;50545;56.064;26.178;2023-02-01T06:59:34;0.10;99.90
64226;DHT22;50545;56.064;26.178;2023-02-01T07:02:02;0.10;99.90
64226;DHT22;50545;56.064;26.178;2023-02-01T07:04:29;0.20;99.90
64226;DHT22;50545;56.064;26.178;2023-02-01T07:06:57;0.10;99.90
64226;DHT22;50545;56.064;26.178;2023-02-01T07:09:24;0.20;99.90
64226;DHT22;50545;56.064;26.178;2023-02-01T07:11:51;0.20;99.90
64226;DHT22;50545;56.064;26.178;2023-02-01T07:14:19;0.20;99.90
64226;DHT22;50545;56.064;26.178;2023-02-01T07:16:46;0.20;99.90
64226;DHT22;50545;56.064;26.178;2023-02-01T07:19:13;0.30;99.90
64226;DHT22;50545;56.064;26.178;2023-02-01T07:21:40;0.30;99.90
64226;DHT22;50545;56.064;26.178;2023-02-01T07:24:07;0.30;99.90
64226;DHT22;50545;56.064;26.178;2023-02-01T07:26:34;0.30;99.90
64226;DHT22;50545;56.064;26.178;2023-02-01T07:29:02;0.30;99.90
64226;DHT22;50545;56.064;26.178;2023-02-01T07:31:29;0.30;99.90
64226;DHT22;50545;56.064;26.178;2023-02-01T07:33:56;0.40;99.90
64226;DHT22;50545;56.064;26.178;2023-02-01T07:36:25;0.50;99.90
64226;DHT22;50545;56.064;26.178;2023-02-01T07:38:52;0.50;99.90
64226;DHT22;50545;56.064;26.178;2023-02-01T07:41:22;0.50;99.90
64226;DHT22;50545;56.064;26.178;2023-02-01T07:43:52;0.50;99.90
64226;DHT22;50545;56.064;26.178;2023-02-01T07:46:20;0.60;99.90
64226;DHT22;50545;56.064;26.178;2023-02-01T07:48:47;0.60;99.90
64226;DHT22;50545;56.064;26.178;2023-02-01T07:51:16;0.60;99.90
64226;DHT22;50545;56.064;26.178;2023-02-01T07:53:44;0.70;99.90
64226;DHT22;50545;56.064;26.178;2023-02-01T07:56:19;0.70;99.90
64226;DHT22;50545;56.064;26.178;2023-02-01T07:58:51;0.70;99.90
64226;DHT22;50545;56.064;26.178;2023-02-01T08:01:22;0.80;99.90
64226;DHT22;50545;56.064;26.178;2023-02-01T08:03:53;0.80;99.90
64226;DHT22;50545;56.064;26.178;2023-02-01T08:06:21;0.90;99.90
64226;DHT22;50545;56.064;26.178;2023-02-01T08:08:49;0.90;99.90
64226;DHT22;50545;56.064;26.178;2023-02-01T08:11:18;0.90;99.90
64226;DHT22;50545;56.064;26.178;2023-02-01T08:13:45;1.00;99.90
64226;DHT22;50545;56.064;26.178;2023-02-01T08:16:14;1.00;99.90
64226;DHT22;50545;56.064;26.178;2023-02-01T08:18:42;1.10;99.90
64226;DHT22;50545;56.064;26.178;2023-02-01T08:21:16;1.10;99.90
64226;DHT22;50545;56.064;26.178;2023-02-01T08:23:44;1.10;99.90
64226;DHT22;50545;56.064;26.178;2023-02-01T08:26:22;1.20;99.90
64226;DHT22;50545;56.064;26.178;2023-02-01T08:29:00;1.20;99.90
64226;DHT22;50545;56.064;26.178;2023-02-01T08:31:30;1.30;99.90
64226;DHT22;50545;56.064;26.178;2023-02-01T08:33:59;1.30;99.90
64226;DHT22;50545;56.064;26.178;2023-02-01T08:36:29;1.30;99.90
64226;DHT22;50545;56.064;26.178;2023-02-01T08:38:57;1.40;99.90
64226;DHT22;50545;56.064;26.178;2023-02-01T08:41:27;1.40;99.90
64226;DHT22;50545;56.064;26.178;2023-02-01T08:43:56;1.50;99.90
64226;DHT22;50545;56.064;26.178;2023-02-01T08:46:23;1.50;99.90
64226;DHT22;50545;56.064;26.178;2023-02-01T08:48:51;1.60;99.90
64226;DHT22;50545;56.064;26.178;2023-02-01T08:51:20;1.60;99.90
64226;DHT22;50545;56.064;26.178;2023-02-01T08:53:48;1.60;99.90
64226;DHT22;50545;56.064;26.178;2023-02-01T08:56:17;1.70;99.90
64226;DHT22;50545;56.064;26.178;2023-02-01T08:58:45;1.70;99.90
64226;DHT22;50545;56.064;26.178;2023-02-01T09:01:16;1.70;99.90
64226;DHT22;50545;56.064;26.178;2023-02-01T09:03:44;1.80;99.90
64226;DHT22;50545;56.064;26.178;2023-02-01T09:06:13;1.80;99.90
64226;DHT22;50545;56.064;26.178;2023-02-01T09:08:41;1.80;99.90
64226;DHT22;50545;56.064;26.178;2023-02-01T09:11:12;1.80;99.90
64226;DHT22;50545;56.064;26.178;2023-02-01T09:13:40;1.90;99.90
64226;DHT22;50545;56.064;26.178;2023-02-01T09:16:07;2.00;99.90
64226;DHT22;50545;56.064;26.178;2023-02-01T09:18:34;2.10;99.90
64226;DHT22;50545;56.064;26.178;2023-02-01T09:21:06;2.20;99.90
64226;DHT22;50545;56.064;26.178;2023-02-01T09:23:34;2.30;99.90
64226;DHT22;50545;56.064;26.178;2023-02-01T09:26:03;2.30;99.90
64226;DHT22;50545;56.064;26.178;2023-02-01T09:28:31;2.30;99.90
64226;DHT22;50545;56.064;26.178;2023-02-01T09:30:58;2.30;99.90
64226;DHT22;50545;56.064;26.178;2023-02-01T09:33:27;2.30;99.90
64226;DHT22;50545;56.064;26.178;2023-02-01T09:35:56;2.30;99.90
64226;DHT22;50545;56.064;26.178;2023-02-01T09:38:23;2.30;99.90
64226;DHT22;50545;56.064;26.178;2023-02-01T09:40:52;2.20;99.90
64226;DHT22;50545;56.064;26.178;2023-02-01T09:43:30;2.20;99.90
64226;DHT22;50545;56.064;26.178;2023-02-01T09:46:24;2.30;99.90
64226;DHT22;50545;56.064;26.178;2023-02-01T09:48:55;2.30;99.90
64226;DHT22;50545;56.064;26.178;2023-02-01T09:51:27;2.30;99.90
64226;DHT22;50545;56.064;26.178;2023-02-01T09:54:05;2.30;99.90
64226;DHT22;50545;56.064;26.178;2023-02-01T09:56:41;2.30;99.90
64226;DHT22;50545;56.064;26.178;2023-02-01T09:59:46;2.40;99.90
64226;DHT22;50545;56.064;26.178;2023-02-01T10:02:26;2.30;99.90
64226;DHT22;50545;56.064;26.178;2023-02-01T10:04:57;2.20;99.90
64226;DHT22;50545;56.064;26.178;2023-02-01T10:07:46;2.30;99.90
64226;DHT22;50545;56.064;26.178;2023-02-01T10:10:43;2.20;99.90
64226;DHT22;50545;56.064;26.178;2023-02-01T10:15:58;2.20;99.90
64226;DHT22;50545;56.064;26.178;2023-02-01T10:27:35;2.30;99.90
64226;DHT22;50545;56.064;26.178;2023-02-01T10:30:23;2.40;99.90
64226;DHT22;50545;56.064;26.178;2023-02-01T10:33:07;2.50;99.90
64226;DHT22;50545;56.064;26.178;2023-02-01T10:35:40;2.50;99.90
64226;DHT22;50545;56.064;26.178;2023-02-01T10:38:27;2.50;99.90
64226;DHT22;50545;56.064;26.178;2023-02-01T10:43:43;2.40;99.90
64226;DHT22;50545;56.064;26.178;2023-02-01T10:46:11;2.40;99.90
64226;DHT22;50545;56.064;26.178;2023-02-01T10:48:39;2.40;99.90
64226;DHT22;50545;56.064;26.178;2023-02-01T10:54:03;2.40;99.90
64226;DHT22;50545;56.064;26.178;2023-02-01T10:56:37;2.40;99.90
64226;DHT22;50545;56.064;26.178;2023-02-01T10:59:11;2.40;99.90
64226;DHT22;50545;56.064;26.178;2023-02-01T11:01:42;2.50;99.90
64226;DHT22;50545;56.064;26.178;2023-02-01T11:04:16;2.50;99.90
64226;DHT22;50545;56.064;26.178;2023-02-01T11:06:49;2.60;99.90
64226;DHT22;50545;56.064;26.178;2023-02-01T11:09:22;2.70;99.90
64226;DHT22;50545;56.064;26.178;2023-02-01T11:16:58;2.60;99.90
64226;DHT22;50545;56.064;26.178;2023-02-01T11:19:28;2.70;99.90
64226;DHT22;50545;56.064;26.178;2023-02-01T11:21:58;2.70;99.90
64226;DHT22;50545;56.064;26.178;2023-02-01T11:24:32;2.70;99.90
64226;DHT22;50545;56.064;26.178;2023-02-01T11:27:02;2.60;99.90
64226;DHT22;50545;56.064;26.178;2023-02-01T11:29:37;2.60;99.90
64226;DHT22;50545;56.064;26.178;2023-02-01T11:32:08;2.60;99.90
64226;DHT22;50545;56.064;26.178;2023-02-01T11:34:49;2.60;99.90
64226;DHT22;50545;56.064;26.178;2023-02-01T11:37:32;2.60;99.90
64226;DHT22;50545;56.064;26.178;2023-02-01T11:40:44;2.60;99.90
64226;DHT22;50545;56.064;26.178;2023-02-01T11:42:58;2.60;99.90
64226;DHT22;50545;56.064;26.178;2023-02-01T11:45:30;2.70;99.90
64226;DHT22;50545;56.064;26.178;2023-02-01T11:47:58;2.70;99.90
64226;DHT22;50545;56.064;26.178;2023-02-01T11:50:34;2.70;99.90
64226;DHT22;50545;56.064;26.178;2023-02-01T12:07:00;2.50;99.90
64226;DHT22;50545;56.064;26.178;2023-02-01T12:13:18;2.50;99.90
64226;DHT22;50545;56.064;26.178;2023-02-01T12:18:36;2.40;99.90
64226;DHT22;50545;56.064;26.178;2023-02-01T12:21:38;2.40;99.90
64226;DHT22;50545;56.064;26.178;2023-02-01T12:33:41;2.30;99.90
64226;DHT22;50545;56.064;26.178;2023-02-01T12:36:16;2.30;99.90
64226;DHT22;50545;56.064;26.178;2023-02-01T12:41:45;2.20;99.90
64226;DHT22;50545;56.064;26.178;2023-02-01T12:44:40;2.30;99.90
64226;DHT22;50545;56.064;26.178;2023-02-01T12:47:29;2.20;99.90
64226;DHT22;50545;56.064;26.178;2023-02-01T12:50:00;2.20;99.90
64226;DHT22;50545;56.064;26.178;2023-02-01T12:52:31;2.20;99.90
64226;DHT22;50545;56.064;26.178;2023-02-01T12:57:56;2.20;99.90
64226;DHT22;50545;56.064;26.178;2023-02-01T13:00:49;2.20;99.90
64226;DHT22;50545;56.064;26.178;2023-02-01T13:03:37;2.20;99.90
64226;DHT22;50545;56.064;26.178;2023-02-01T13:06:44;2.20;99.90
64226;DHT22;50545;56.064;26.178;2023-02-01T13:09:39;2.20;99.90
64226;DHT22;50545;56.064;26.178;2023-02-01T13:12:16;2.20;99.90
64226;DHT22;50545;56.064;26.178;2023-02-01T13:14:53;2.20;99.90
64226;DHT22;50545;56.064;26.178;2023-02-01T13:17:22;2.20;99.90
64226;DHT22;50545;56.064;26.178;2023-02-01T13:23:33;2.10;99.90
64226;DHT22;50545;56.064;26.178;2023-02-01T13:25:53;2.10;99.90
64226;DHT22;50545;56.064;26.178;2023-02-01T13:28:42;2.00;99.90
64226;DHT22;50545;56.064;26.178;2023-02-01T13:42:28;1.90;99.90
64226;DHT22;50545;56.064;26.178;2023-02-01T13:45:02;1.90;99.90
64226;DHT22;50545;56.064;26.178;2023-02-01T13:47:33;1.90;99.90
64226;DHT22;50545;56.064;26.178;2023-02-01T13:50:19;1.90;99.90
64226;DHT22;50545;56.064;26.178;2023-02-01T13:52:57;1.90;99.90
64226;DHT22;50545;56.064;26.178;2023-02-01T13:55:29;1.90;99.90
64226;DHT22;50545;56.064;26.178;2023-02-01T13:58:02;1.90;99.90
64226;DHT22;50545;56.064;26.178;2023-02-01T14:00:36;1.80;99.90
64226;DHT22;50545;56.064;26.178;2023-02-01T14:03:09;1.80;99.90
64226;DHT22;50545;56.064;26.178;2023-02-01T14:10:59;1.60;99.90
64226;DHT22;50545;56.064;26.178;2023-02-01T14:26:49;1.40;99.90
64226;DHT22;50545;56.064;26.178;2023-02-01T14:34:31;1.30;99.90
64226;DHT22;50545;56.064;26.178;2023-02-01T14:37:06;1.30;99.90
64226;DHT22;50545;56.064;26.178;2023-02-01T14:39:54;1.20;99.90
64226;DHT22;50545;56.064;26.178;2023-02-01T14:42:46;1.20;99.90
64226;DHT22;50545;56.064;26.178;2023-02-01T14:50:24;1.10;99.90
64226;DHT22;50545;56.064;26.178;2023-02-01T14:55:40;1.10;99.90
64226;DHT22;50545;56.064;26.178;2023-02-01T15:00:59;1.10;99.90
64226;DHT22;50545;56.064;26.178;2023-02-01T15:09:18;1.10;99.90
64226;DHT22;50545;56.064;26.178;2023-02-01T15:12:16;1.00;99.90
64226;DHT22;50545;56.064;26.178;2023-02-01T15:15:16;1.00;99.90
64226;DHT22;50545;56.064;26.178;2023-02-01T15:17:58;1.10;99.90
64226;DHT22;50545;56.064;26.178;2023-02-01T15:20:29;1.00;99.90
64226;DHT22;50545;56.064;26.178;2023-02-01T15:25:38;1.00;99.90
64226;DHT22;50545;56.064;26.178;2023-02-01T15:28:12;1.00;99.90
64226;DHT22;50545;56.064;26.178;2023-02-01T15:30:40;1.00;99.90
64226;DHT22;50545;56.064;26.178;2023-02-01T15:33:19;1.00;99.90
64226;DHT22;50545;56.064;26.178;2023-02-01T15:35:49;1.00;99.90
64226;DHT22;50545;56.064;26.178;2023-02-01T15:38:36;1.00;99.90
64226;DHT22;50545;56.064;26.178;2023-02-01T15:46:15;1.00;99.90
64226;DHT22;50545;56.064;26.178;2023-02-01T15:48:48;1.00;99.90
64226;DHT22;50545;56.064;26.178;2023-02-01T15:51:19;1.00;99.90
64226;DHT22;50545;56.064;26.178;2023-02-01T15:54:07;1.00;99.90
64226;DHT22;50545;56.064;26.178;2023-02-01T15:56:40;1.00;99.90
64226;DHT22;50545;56.064;26.178;2023-02-01T15:59:24;1.00;99.90
64226;DHT22;50545;56.064;26.178;2023-02-01T16:01:52;1.00;99.90
64226;DHT22;50545;56.064;26.178;2023-02-01T16:04:22;1.00;99.90
64226;DHT22;50545;56.064;26.178;2023-02-01T16:09:20;0.90;99.90
64226;DHT22;50545;56.064;26.178;2023-02-01T16:11:57;0.90;99.90
64226;DHT22;50545;56.064;26.178;2023-02-01T16:14:25;0.90;99.90
64226;DHT22;50545;56.064;26.178;2023-02-01T16:16:55;0.90;99.90
64226;DHT22;50545;56.064;26.178;2023-02-01T16:19:23;1.00;99.90
64226;DHT22;50545;56.064;26.178;2023-02-01T16:21:55;0.90;99.90
64226;DHT22;50545;56.064;26.178;2023-02-01T16:24:22;0.90;99.90
64226;DHT22;50545;56.064;26.178;2023-02-01T16:26:52;0.90;99.90
64226;DHT22;50545;56.064;26.178;2023-02-01T16:29:20;0.90;99.90
64226;DHT22;50545;56.064;26.178;2023-02-01T16:31:48;0.90;99.90
64226;DHT22;50545;56.064;26.178;2023-02-01T16:34:17;0.90;99.90
64226;DHT22;50545;56.064;26.178;2023-02-01T16:36:48;0.90;99.90
64226;DHT22;50545;56.064;26.178;2023-02-01T16:39:20;0.90;99.90
64226;DHT22;50545;56.064;26.178;2023-02-01T16:41:48;0.90;99.90
64226;DHT22;50545;56.064;26.178;2023-02-01T16:44:15;0.90;99.90
64226;DHT22;50545;56.064;26.178;2023-02-01T16:46:44;0.80;99.90
64226;DHT22;50545;56.064;26.178;2023-02-01T16:49:19;0.90;99.90
64226;DHT22;50545;56.064;26.178;2023-02-01T16:51:49;0.80;99.90
64226;DHT22;50545;56.064;26.178;2023-02-01T16:54:17;0.80;99.90
64226;DHT22;50545;56.064;26.178;2023-02-01T16:56:45;0.80;99.90
64226;DHT22;50545;56.064;26.178;2023-02-01T16:59:13;0.80;99.90
64226;DHT22;50545;56.064;26.178;2023-02-01T17:01:41;0.80;99.90
64226;DHT22;50545;56.064;26.178;2023-02-01T17:04:09;0.80;99.90
64226;DHT22;50545;56.064;26.178;2023-02-01T17:06:38;0.80;99.90
64226;DHT22;50545;56.064;26.178;2023-02-01T17:09:06;0.80;99.90
64226;DHT22;50545;56.064;26.178;2023-02-01T17:11:34;0.80;99.90
64226;DHT22;50545;56.064;26.178;2023-02-01T17:14:17;0.80;99.90
64226;DHT22;50545;56.064;26.178;2023-02-01T17:16:47;0.80;99.90
64226;DHT22;50545;56.064;26.178;2023-02-01T17:19:17;0.80;99.90
64226;DHT22;50545;56.064;26.178;2023-02-01T17:21:46;0.70;99.90
64226;DHT22;50545;56.064;26.178;2023-02-01T17:24:17;0.70;99.90
64226;DHT22;50545;56.064;26.178;2023-02-01T17:26:45;0.80;99.90
64226;DHT22;50545;56.064;26.178;2023-02-01T17:29:13;0.70;99.90
64226;DHT22;50545;56.064;26.178;2023-02-01T17:31:43;0.70;99.90
64226;DHT22;50545;56.064;26.178;2023-02-01T17:34:12;0.80;99.90
64226;DHT22;50545;56.064;26.178;2023-02-01T17:36:41;0.70;99.90
64226;DHT22;50545;56.064;26.178;2023-02-01T17:39:09;0.80;99.90
64226;DHT22;50545;56.064;26.178;2023-02-01T17:41:37;0.70;99.90
64226;DHT22;50545;56.064;26.178;2023-02-01T17:44:04;0.80;99.90
64226;DHT22;50545;56.064;26.178;2023-02-01T17:46:31;0.80;99.90
64226;DHT22;50545;56.064;26.178;2023-02-01T17:48:59;0.80;99.90
64226;DHT22;50545;56.064;26.178;2023-02-01T17:51:28;0.80;99.90
64226;DHT22;50545;56.064;26.178;2023-02-01T17:53:56;0.80;99.90
64226;DHT22;50545;56.064;26.178;2023-02-01T17:56:24;0.80;99.90
64226;DHT22;50545;56.064;26.178;2023-02-01T17:58:52;0.80;99.90
64226;DHT22;50545;56.064;26.178;2023-02-01T18:01:22;0.80;99.90
64226;DHT22;50545;56.064;26.178;2023-02-01T18:03:50;0.70;99.90
64226;DHT22;50545;56.064;26.178;2023-02-01T18:06:23;0.70;99.90
64226;DHT22;50545;56.064;26.178;2023-02-01T18:08:52;0.80;99.90
64226;DHT22;50545;56.064;26.178;2023-02-01T18:11:22;0.70;99.90
64226;DHT22;50545;56.064;26.178;2023-02-01T18:13:51;0.70;99.90
64226;DHT22;50545;56.064;26.178;2023-02-01T18:16:26;0.70;99.90
64226;DHT22;50545;56.064;26.178;2023-02-01T18:18:54;0.70;99.90
64226;DHT22;50545;56.064;26.178;2023-02-01T18:21:41;0.70;99.90
64226;DHT22;50545;56.064;26.178;2023-02-01T18:24:14;0.70;99.90
64226;DHT22;50545;56.064;26.178;2023-02-01T18:26:42;0.70;99.90
64226;DHT22;50545;56.064;26.178;2023-02-01T18:29:09;0.70;99.90
64226;DHT22;50545;56.064;26.178;2023-02-01T18:31:43;0.70;99.90
64226;DHT22;50545;56.064;26.178;2023-02-01T18:34:12;0.70;99.90
64226;DHT22;50545;56.064;26.178;2023-02-01T18:36:48;0.70;99.90
64226;DHT22;50545;56.064;26.178;2023-02-01T18:39:16;0.70;99.90
64226;DHT22;50545;56.064;26.178;2023-02-01T18:41:45;0.70;99.90
64226;DHT22;50545;56.064;26.178;2023-02-01T18:44:14;0.70;99.90
64226;DHT22;50545;56.064;26.178;2023-02-01T18:46:42;0.70;99.90
64226;DHT22;50545;56.064;26.178;2023-02-01T18:49:09;0.70;99.90